Bremerton National Airport
KPWT : rendu visible

Aérodrome :











RETROUVEZ-NOUS SUR...

 
LOGIN :

S'inscrire | Disclaimer

   EN    FR    IT 

 









Légende :    VFR   VFR Marginal   IFR   IFR Intensif   IFR Très Intensif
Visi : 
Plafond : 
>= 8 km
>= 3000ft
5 à 8 km
1000 à 3000 ft
1500m à 5 km
500 à 1000 ft
800 à 1500m
200 à 500 ft
< 800m
< 200 ft
Symboles :   Orages  Brouillard  Fortes neiges  Fortes précipitations  Vent > 20 kt






- Altitude de l'aérodrome : 444 ft
- Code IATA : PWT


KPWT - Bremerton National

DERNIER METAR :
  • 180917Z AUTO 00000KT 4SM UP BR FEW003 SCT010 OVC022 01/00 A3008 RMK AO2 RAB00E10 P0002 FZRANO

METARs EXPIRÉS :
  • 180908Z AUTO VRB03KT 6SM -RA BR SCT003 BKN010 OVC022 01/00 A3008 RMK AO2 UPE00RAB00 CIG 008V013 P0001 FZRANO
  • 180856Z AUTO 26003KT 9SM UP SCT003 SCT008 OVC022 01/00 A3008 RMK AO2 UPE0758B52RAB0758E52 SLP194 P0005 60018 T00060000 58010 FZRANO
  • 180843Z AUTO 27004KT 10SM -RA FEW003 SCT013 OVC022 01/00 A3008 RMK AO2 UPE0758RAB0758 P0004 FZRANO
  • 180818Z AUTO 00000KT 10SM -RA BKN020 01/00 A3008 RMK AO2 UPE0758RAB0758 P0001 FZRANO
  • 180756Z AUTO 01004KT 4SM UP BR FEW007 01/00 A3009 RMK AO2 RAE06UPB54SNB06E54 SLP197 P0007 T00060000 400281022 FZRANO
  • 180741Z AUTO 33004KT 2 1/2SM -SN BR FEW007 SCT011 BKN016 01/00 A3010 RMK AO2 RAE06SNB06 P0005 FZRANO
  • 180734Z AUTO 32003KT 3SM -SN BR SCT007 OVC014 01/00 A3010 RMK AO2 RAE06SNB06 P0004 FZRANO
  • 180656Z AUTO 30004KT 10SM -RA BKN014 OVC021 01/01 A3011 RMK AO2 SLP204 P0006 T00110011 FZRANO
  • 180633Z AUTO 00000KT 10SM RA OVC016 02/01 A3011 RMK AO2 P0004 FZRANO

TAF KPWT
Valide du 18 à 06h jusqu'au 19 à 06h UTC


180541Z 1806/1906 00000KT P6SM -RA SCT010 BKN018 OVC035
TEMPO 1806/1808 4SM -RASN
FM180900 18005KT 4SM -RA BR OVC010
FM181500 18010KT P6SM -SHRA OVC025
FM182100 18008KT P6SM SCT025 BKN040



MET'MAP, la Météo Aéronautique d'un coup d'oeil ! - Copyright ORBIFLY Décembre 2007 - Disclaimer

ORBIFLY MET'MAP TEAM :

Programmation & Développement : Alexandra Zaïnal
Sur une idée originale de : Baudouin d'Aumeries
Assistance à la programmation : Marc-Olivier Méhu
Soutien technique & logistique : Manuel Goepfert

Contact : metmap@orbifly.com




SOURCES & CREDITS :

   NOAA       Earth
Advisory